sensor_id;sensor_type;location;lat;lon;timestamp;pressure;altitude;pressure_sealevel;temperature;humidity
24762;BME280;12865;51.934;10.330;2022-12-18T00:02:36;100453.19;;;-6.66;100.00
24762;BME280;12865;51.934;10.330;2022-12-18T00:05:22;100457.50;;;-6.76;100.00
24762;BME280;12865;51.934;10.330;2022-12-18T00:08:08;100460.09;;;-6.68;100.00
24762;BME280;12865;51.934;10.330;2022-12-18T00:10:54;100460.97;;;-6.78;100.00
24762;BME280;12865;51.934;10.330;2022-12-18T00:13:40;100460.94;;;-6.80;100.00
24762;BME280;12865;51.934;10.330;2022-12-18T00:16:27;100468.72;;;-6.52;100.00
24762;BME280;12865;51.934;10.330;2022-12-18T00:19:14;100469.53;;;-6.44;100.00
24762;BME280;12865;51.934;10.330;2022-12-18T00:21:59;100471.25;;;-6.32;100.00
24762;BME280;12865;51.934;10.330;2022-12-18T00:24:45;100472.97;;;-6.24;100.00
24762;BME280;12865;51.934;10.330;2022-12-18T00:27:31;100484.22;;;-6.32;100.00
24762;BME280;12865;51.934;10.330;2022-12-18T00:30:16;100481.63;;;-6.45;100.00
24762;BME280;12865;51.934;10.330;2022-12-18T00:33:02;100484.28;;;-6.61;100.00
24762;BME280;12865;51.934;10.330;2022-12-18T00:35:48;100486.00;;;-6.57;100.00
24762;BME280;12865;51.934;10.330;2022-12-18T00:38:34;100490.28;;;-6.41;100.00
24762;BME280;12865;51.934;10.330;2022-12-18T00:41:20;100485.06;;;-6.30;100.00
24762;BME280;12865;51.934;10.330;2022-12-18T00:44:24;100488.50;;;-6.22;100.00
24762;BME280;12865;51.934;10.330;2022-12-18T00:47:10;100480.69;;;-6.13;100.00
24762;BME280;12865;51.934;10.330;2022-12-18T00:49:55;100478.94;;;-6.04;100.00
24762;BME280;12865;51.934;10.330;2022-12-18T00:52:41;100483.28;;;-6.13;100.00
24762;BME280;12865;51.934;10.330;2022-12-18T00:55:28;100483.19;;;-5.92;100.00
24762;BME280;12865;51.934;10.330;2022-12-18T00:58:15;100486.69;;;-5.99;100.00
24762;BME280;12865;51.934;10.330;2022-12-18T01:01:01;100486.69;;;-6.02;100.00
24762;BME280;12865;51.934;10.330;2022-12-18T01:03:46;100490.94;;;-5.86;100.00
24762;BME280;12865;51.934;10.330;2022-12-18T01:06:32;100493.63;;;-6.01;98.50
24762;BME280;12865;51.934;10.330;2022-12-18T01:09:18;100498.91;;;-6.30;98.34
24762;BME280;12865;51.934;10.330;2022-12-18T01:12:04;100498.94;;;-6.44;99.81
24762;BME280;12865;51.934;10.330;2022-12-18T01:14:49;100503.25;;;-6.50;99.23
24762;BME280;12865;51.934;10.330;2022-12-18T01:17:35;100501.56;;;-6.56;99.85
24762;BME280;12865;51.934;10.330;2022-12-18T01:20:21;100503.31;;;-6.70;99.85
24762;BME280;12865;51.934;10.330;2022-12-18T01:23:07;100499.84;;;-6.77;100.00
24762;BME280;12865;51.934;10.330;2022-12-18T01:25:52;100499.84;;;-6.86;100.00
24762;BME280;12865;51.934;10.330;2022-12-18T01:28:38;100498.09;;;-6.71;100.00
24762;BME280;12865;51.934;10.330;2022-12-18T01:31:27;100492.06;;;-6.70;100.00
24762;BME280;12865;51.934;10.330;2022-12-18T01:34:13;100480.81;;;-6.69;100.00
24762;BME280;12865;51.934;10.330;2022-12-18T01:37:02;100499.00;;;-6.76;100.00
24762;BME280;12865;51.934;10.330;2022-12-18T01:39:48;100502.44;;;-6.75;100.00
24762;BME280;12865;51.934;10.330;2022-12-18T01:42:35;100498.09;;;-6.71;100.00
24762;BME280;12865;51.934;10.330;2022-12-18T01:45:27;100521.47;;;-6.73;100.00
24762;BME280;12865;51.934;10.330;2022-12-18T01:48:12;100528.34;;;-6.63;100.00
24762;BME280;12865;51.934;10.330;2022-12-18T01:50:59;100526.63;;;-6.56;100.00
24762;BME280;12865;51.934;10.330;2022-12-18T01:53:46;100529.22;;;-6.70;100.00
24762;BME280;12865;51.934;10.330;2022-12-18T01:56:32;100515.38;;;-6.72;100.00
24762;BME280;12865;51.934;10.330;2022-12-18T01:59:18;100514.53;;;-6.76;100.00
24762;BME280;12865;51.934;10.330;2022-12-18T02:02:04;100520.56;;;-6.58;100.00
24762;BME280;12865;51.934;10.330;2022-12-18T02:04:49;100508.47;;;-6.56;100.00
24762;BME280;12865;51.934;10.330;2022-12-18T02:10:43;100495.50;;;-6.62;100.00
24762;BME280;12865;51.934;10.330;2022-12-18T02:13:40;100497.16;;;-6.29;100.00
24762;BME280;12865;51.934;10.330;2022-12-18T02:29:32;100508.41;;;-6.17;100.00
24762;BME280;12865;51.934;10.330;2022-12-18T02:32:25;100500.66;;;-6.40;100.00
24762;BME280;12865;51.934;10.330;2022-12-18T02:35:15;100502.41;;;-6.55;100.00
24762;BME280;12865;51.934;10.330;2022-12-18T02:38:03;100509.34;;;-6.65;100.00
24762;BME280;12865;51.934;10.330;2022-12-18T02:40:50;100519.72;;;-6.62;100.00
24762;BME280;12865;51.934;10.330;2022-12-18T02:43:36;100510.22;;;-6.66;100.00
24762;BME280;12865;51.934;10.330;2022-12-18T02:46:26;100514.56;;;-6.74;100.00
24762;BME280;12865;51.934;10.330;2022-12-18T02:49:49;100517.13;;;-6.83;100.00
24762;BME280;12865;51.934;10.330;2022-12-18T02:59:07;100521.47;;;-7.09;100.00
24762;BME280;12865;51.934;10.330;2022-12-18T03:02:00;100506.75;;;-7.27;100.00
24762;BME280;12865;51.934;10.330;2022-12-18T03:05:10;100519.69;;;-7.26;100.00
24762;BME280;12865;51.934;10.330;2022-12-18T03:08:03;100525.75;;;-7.31;100.00
24762;BME280;12865;51.934;10.330;2022-12-18T03:10:58;100520.56;;;-7.33;100.00
24762;BME280;12865;51.934;10.330;2022-12-18T03:13:50;100517.06;;;-7.45;100.00
24762;BME280;12865;51.934;10.330;2022-12-18T03:16:37;100514.50;;;-7.50;100.00
24762;BME280;12865;51.934;10.330;2022-12-18T03:19:27;100511.00;;;-7.61;100.00
24762;BME280;12865;51.934;10.330;2022-12-18T03:22:14;100511.84;;;-7.61;100.00
24762;BME280;12865;51.934;10.330;2022-12-18T03:25:06;100523.97;;;-7.58;100.00
24762;BME280;12865;51.934;10.330;2022-12-18T03:27:56;100516.13;;;-7.70;100.00
24762;BME280;12865;51.934;10.330;2022-12-18T03:30:46;100518.72;;;-7.69;100.00
24762;BME280;12865;51.934;10.330;2022-12-18T03:33:46;100519.66;;;-7.53;100.00
24762;BME280;12865;51.934;10.330;2022-12-18T03:36:32;100517.03;;;-7.55;100.00
24762;BME280;12865;51.934;10.330;2022-12-18T03:39:19;100516.16;;;-7.61;100.00
24762;BME280;12865;51.934;10.330;2022-12-18T03:42:08;100512.69;;;-7.74;100.00
24762;BME280;12865;51.934;10.330;2022-12-18T03:45:09;100512.69;;;-7.69;100.00
24762;BME280;12865;51.934;10.330;2022-12-18T03:48:23;100504.97;;;-7.49;100.00
24762;BME280;12865;51.934;10.330;2022-12-18T03:51:18;100506.75;;;-7.32;100.00
24762;BME280;12865;51.934;10.330;2022-12-18T03:54:09;100508.47;;;-7.28;100.00
24762;BME280;12865;51.934;10.330;2022-12-18T03:57:21;100515.34;;;-7.39;100.00
24762;BME280;12865;51.934;10.330;2022-12-18T04:00:12;100512.75;;;-7.45;100.00
24762;BME280;12865;51.934;10.330;2022-12-18T04:03:00;100504.97;;;-7.56;100.00
24762;BME280;12865;51.934;10.330;2022-12-18T04:05:50;100504.09;;;-7.59;100.00
24762;BME280;12865;51.934;10.330;2022-12-18T04:08:36;100510.13;;;-7.56;100.00
24762;BME280;12865;51.934;10.330;2022-12-18T04:11:24;100501.53;;;-7.53;100.00
24762;BME280;12865;51.934;10.330;2022-12-18T04:14:10;100495.44;;;-7.73;100.00
24762;BME280;12865;51.934;10.330;2022-12-18T04:16:55;100498.84;;;-7.80;100.00
24762;BME280;12865;51.934;10.330;2022-12-18T04:19:41;100489.38;;;-7.75;100.00
24762;BME280;12865;51.934;10.330;2022-12-18T04:22:27;100495.41;;;-7.79;100.00
24762;BME280;12865;51.934;10.330;2022-12-18T04:25:13;100499.69;;;-7.83;100.00
24762;BME280;12865;51.934;10.330;2022-12-18T04:27:58;100505.75;;;-7.85;100.00
24762;BME280;12865;51.934;10.330;2022-12-18T04:30:44;100512.63;;;-7.84;100.00
24762;BME280;12865;51.934;10.330;2022-12-18T04:33:30;100529.06;;;-7.79;100.00
24762;BME280;12865;51.934;10.330;2022-12-18T04:36:15;100528.19;;;-7.80;100.00
24762;BME280;12865;51.934;10.330;2022-12-18T04:39:01;100528.16;;;-7.89;100.00
24762;BME280;12865;51.934;10.330;2022-12-18T04:41:47;100531.63;;;-7.87;100.00
24762;BME280;12865;51.934;10.330;2022-12-18T04:44:32;100523.00;;;-7.81;100.00
24762;BME280;12865;51.934;10.330;2022-12-18T04:47:18;100523.00;;;-7.81;100.00
24762;BME280;12865;51.934;10.330;2022-12-18T04:50:04;100519.50;;;-7.91;100.00
24762;BME280;12865;51.934;10.330;2022-12-18T04:52:50;100511.75;;;-7.94;100.00
24762;BME280;12865;51.934;10.330;2022-12-18T04:55:36;100514.31;;;-7.96;100.00
24762;BME280;12865;51.934;10.330;2022-12-18T04:58:21;100515.19;;;-7.97;100.00
24762;BME280;12865;51.934;10.330;2022-12-18T05:01:08;100517.72;;;-8.09;100.00
24762;BME280;12865;51.934;10.330;2022-12-18T05:03:54;100518.59;;;-8.08;100.00
24762;BME280;12865;51.934;10.330;2022-12-18T05:06:41;100510.84;;;-8.04;100.00
24762;BME280;12865;51.934;10.330;2022-12-18T05:09:26;100510.81;;;-8.10;100.00
24762;BME280;12865;51.934;10.330;2022-12-18T05:12:12;100501.34;;;-8.06;100.00
24762;BME280;12865;51.934;10.330;2022-12-18T05:14:58;100515.06;;;-8.18;100.00
24762;BME280;12865;51.934;10.330;2022-12-18T05:17:43;100515.97;;;-8.10;100.00
24762;BME280;12865;51.934;10.330;2022-12-18T05:20:30;100508.19;;;-8.20;100.00
24762;BME280;12865;51.934;10.330;2022-12-18T05:23:17;100506.44;;;-8.20;100.00
24762;BME280;12865;51.934;10.330;2022-12-18T05:26:04;100515.06;;;-8.19;100.00
24762;BME280;12865;51.934;10.330;2022-12-18T05:28:51;100509.09;;;-8.14;100.00
24762;BME280;12865;51.934;10.330;2022-12-18T05:31:36;100503.13;;;-7.93;100.00
24762;BME280;12865;51.934;10.330;2022-12-18T05:34:22;100507.44;;;-7.90;100.00
24762;BME280;12865;51.934;10.330;2022-12-18T05:37:08;100510.06;;;-7.86;100.00
24762;BME280;12865;51.934;10.330;2022-12-18T05:42:21;100502.28;;;-7.84;100.00
24762;BME280;12865;51.934;10.330;2022-12-18T05:45:07;100505.72;;;-7.88;100.00
24762;BME280;12865;51.934;10.330;2022-12-18T05:47:53;100493.63;;;-8.00;100.00
24762;BME280;12865;51.934;10.330;2022-12-18T05:50:40;100497.94;;;-7.96;100.00
24762;BME280;12865;51.934;10.330;2022-12-18T05:53:26;100505.69;;;-7.98;100.00
24762;BME280;12865;51.934;10.330;2022-12-18T05:56:17;100514.34;;;-7.93;100.00
24762;BME280;12865;51.934;10.330;2022-12-18T05:59:03;100525.59;;;-7.80;100.00
24762;BME280;12865;51.934;10.330;2022-12-18T06:01:49;100524.72;;;-7.77;100.00
24762;BME280;12865;51.934;10.330;2022-12-18T06:04:35;100533.38;;;-7.71;100.00
24762;BME280;12865;51.934;10.330;2022-12-18T06:07:20;100533.44;;;-7.59;100.00
24762;BME280;12865;51.934;10.330;2022-12-18T06:10:06;100535.19;;;-7.48;100.00
24762;BME280;12865;51.934;10.330;2022-12-18T06:12:52;100537.75;;;-7.61;100.00
24762;BME280;12865;51.934;10.330;2022-12-18T06:15:37;100544.63;;;-7.63;100.00
24762;BME280;12865;51.934;10.330;2022-12-18T06:18:23;100548.97;;;-7.65;100.00
24762;BME280;12865;51.934;10.330;2022-12-18T06:21:09;100545.50;;;-7.71;100.00
24762;BME280;12865;51.934;10.330;2022-12-18T06:23:54;100555.84;;;-7.73;100.00
24762;BME280;12865;51.934;10.330;2022-12-18T06:26:40;100546.38;;;-7.60;100.00
24762;BME280;12865;51.934;10.330;2022-12-18T06:29:26;100533.53;;;-7.11;100.00
24762;BME280;12865;51.934;10.330;2022-12-18T06:32:12;100537.00;;;-6.93;100.00
24762;BME280;12865;51.934;10.330;2022-12-18T06:34:57;100537.88;;;-6.69;100.00
24762;BME280;12865;51.934;10.330;2022-12-18T06:37:43;100534.41;;;-6.59;100.00
24762;BME280;12865;51.934;10.330;2022-12-18T06:40:29;100531.81;;;-6.55;100.00
24762;BME280;12865;51.934;10.330;2022-12-18T06:43:15;100529.22;;;-6.49;100.00
24762;BME280;12865;51.934;10.330;2022-12-18T06:46:00;100531.78;;;-6.33;100.00
24762;BME280;12865;51.934;10.330;2022-12-18T06:48:47;100535.25;;;-6.41;100.00
24762;BME280;12865;51.934;10.330;2022-12-18T06:51:34;100525.75;;;-6.54;100.00
24762;BME280;12865;51.934;10.330;2022-12-18T06:54:20;100535.25;;;-6.72;100.00
24762;BME280;12865;51.934;10.330;2022-12-18T06:57:05;100540.47;;;-6.95;100.00
24762;BME280;12865;51.934;10.330;2022-12-18T06:59:51;100543.03;;;-7.07;100.00
24762;BME280;12865;51.934;10.330;2022-12-18T07:02:37;100542.19;;;-7.11;100.00
24762;BME280;12865;51.934;10.330;2022-12-18T07:05:22;100537.81;;;-7.29;100.00
24762;BME280;12865;51.934;10.330;2022-12-18T07:08:08;100555.09;;;-7.29;100.00
24762;BME280;12865;51.934;10.330;2022-12-18T07:10:54;100561.16;;;-7.23;100.00
24762;BME280;12865;51.934;10.330;2022-12-18T07:13:39;100561.13;;;-7.29;100.00
24762;BME280;12865;51.934;10.330;2022-12-18T07:16:25;100574.09;;;-7.32;100.00
24762;BME280;12865;51.934;10.330;2022-12-18T07:19:11;100577.47;;;-7.48;100.00
24762;BME280;12865;51.934;10.330;2022-12-18T07:21:57;100586.16;;;-7.43;100.00
24762;BME280;12865;51.934;10.330;2022-12-18T07:24:43;100573.13;;;-7.57;100.00
24762;BME280;12865;51.934;10.330;2022-12-18T07:27:28;100580.06;;;-7.48;100.00
24762;BME280;12865;51.934;10.330;2022-12-18T07:30:14;100585.19;;;-7.66;100.00
24762;BME280;12865;51.934;10.330;2022-12-18T07:33:00;100586.84;;;-7.80;100.00
24762;BME280;12865;51.934;10.330;2022-12-18T07:35:45;100601.44;;;-7.92;100.00
24762;BME280;12865;51.934;10.330;2022-12-18T07:38:32;100599.75;;;-7.93;100.00
24762;BME280;12865;51.934;10.330;2022-12-18T07:41:18;100604.00;;;-8.01;100.00
24762;BME280;12865;51.934;10.330;2022-12-18T07:44:04;100602.25;;;-7.99;100.00
24762;BME280;12865;51.934;10.330;2022-12-18T07:46:50;100606.63;;;-7.95;100.00
24762;BME280;12865;51.934;10.330;2022-12-18T07:49:36;100604.91;;;-7.89;100.00
24762;BME280;12865;51.934;10.330;2022-12-18T07:52:21;100605.75;;;-7.97;100.00
24762;BME280;12865;51.934;10.330;2022-12-18T07:55:07;100609.19;;;-8.01;100.00
24762;BME280;12865;51.934;10.330;2022-12-18T07:57:53;100621.19;;;-8.06;100.00
24762;BME280;12865;51.934;10.330;2022-12-18T08:00:39;100631.63;;;-8.00;100.00
24762;BME280;12865;51.934;10.330;2022-12-18T08:03:24;100628.19;;;-7.91;100.00
24762;BME280;12865;51.934;10.330;2022-12-18T08:06:10;100628.25;;;-7.83;100.00
24762;BME280;12865;51.934;10.330;2022-12-18T08:08:56;100626.53;;;-7.80;100.00
24762;BME280;12865;51.934;10.330;2022-12-18T08:11:42;100635.22;;;-7.72;100.00
24762;BME280;12865;51.934;10.330;2022-12-18T08:14:28;100615.41;;;-7.65;100.00
24762;BME280;12865;51.934;10.330;2022-12-18T08:17:14;100609.41;;;-7.58;100.00
24762;BME280;12865;51.934;10.330;2022-12-18T08:19:59;100611.16;;;-7.48;100.00
24762;BME280;12865;51.934;10.330;2022-12-18T08:22:45;100611.16;;;-7.48;100.00
24762;BME280;12865;51.934;10.330;2022-12-18T08:25:31;100606.84;;;-7.47;100.00
24762;BME280;12865;51.934;10.330;2022-12-18T08:28:16;100600.81;;;-7.46;100.00
24762;BME280;12865;51.934;10.330;2022-12-18T08:31:02;100600.81;;;-7.40;100.00
24762;BME280;12865;51.934;10.330;2022-12-18T08:33:49;100598.28;;;-7.27;100.00
24762;BME280;12865;51.934;10.330;2022-12-18T08:36:35;100592.28;;;-7.15;100.00
24762;BME280;12865;51.934;10.330;2022-12-18T08:39:21;100582.75;;;-7.07;100.00
24762;BME280;12865;51.934;10.330;2022-12-18T08:42:07;100587.09;;;-6.98;100.00
24762;BME280;12865;51.934;10.330;2022-12-18T08:45:11;100585.38;;;-6.86;100.00
24762;BME280;12865;51.934;10.330;2022-12-18T08:47:56;100577.63;;;-6.75;100.00
24762;BME280;12865;51.934;10.330;2022-12-18T08:50:42;100577.66;;;-6.66;100.00
24762;BME280;12865;51.934;10.330;2022-12-18T08:53:28;100575.03;;;-6.51;100.00
24762;BME280;12865;51.934;10.330;2022-12-18T08:56:14;100561.19;;;-6.31;100.00
24762;BME280;12865;51.934;10.330;2022-12-18T08:59:00;100559.41;;;-6.14;100.00
24762;BME280;12865;51.934;10.330;2022-12-18T09:01:47;100556.75;;;-5.91;100.00
24762;BME280;12865;51.934;10.330;2022-12-18T09:04:33;100548.00;;;-5.72;100.00
24762;BME280;12865;51.934;10.330;2022-12-18T09:07:18;100553.13;;;-5.59;100.00
24762;BME280;12865;51.934;10.330;2022-12-18T09:10:05;100553.06;;;-5.45;100.00
24762;BME280;12865;51.934;10.330;2022-12-18T09:12:50;100553.84;;;-5.29;100.00
24762;BME280;12865;51.934;10.330;2022-12-18T09:15:44;100561.56;;;-5.14;100.00
24762;BME280;12865;51.934;10.330;2022-12-18T09:18:30;100568.38;;;-4.96;100.00
24762;BME280;12865;51.934;10.330;2022-12-18T09:21:19;100563.09;;;-4.84;100.00
24762;BME280;12865;51.934;10.330;2022-12-18T09:24:06;100563.88;;;-4.71;100.00
24762;BME280;12865;51.934;10.330;2022-12-18T09:26:54;100554.28;;;-4.66;100.00
24762;BME280;12865;51.934;10.330;2022-12-18T09:29:40;100555.88;;;-4.49;100.00
24762;BME280;12865;51.934;10.330;2022-12-18T09:32:26;100556.56;;;-4.28;100.00
24762;BME280;12865;51.934;10.330;2022-12-18T09:35:11;100553.75;;;-4.07;100.00
24762;BME280;12865;51.934;10.330;2022-12-18T09:37:57;100553.53;;;-3.90;100.00
24762;BME280;12865;51.934;10.330;2022-12-18T09:40:51;100549.88;;;-3.74;100.00
24762;BME280;12865;51.934;10.330;2022-12-18T09:44:17;100541.81;;;-3.54;100.00
24762;BME280;12865;51.934;10.330;2022-12-18T09:47:09;100540.88;;;-3.49;98.46
24762;BME280;12865;51.934;10.330;2022-12-18T09:50:01;100534.66;;;-3.39;98.49
24762;BME280;12865;51.934;10.330;2022-12-18T09:52:51;100538.03;;;-3.31;97.73
24762;BME280;12865;51.934;10.330;2022-12-18T09:55:43;100537.94;;;-3.26;98.33
24762;BME280;12865;51.934;10.330;2022-12-18T09:58:41;100539.63;;;-3.22;96.92
24762;BME280;12865;51.934;10.330;2022-12-18T10:01:31;100543.03;;;-3.15;97.18
24762;BME280;12865;51.934;10.330;2022-12-18T10:04:18;100536.00;;;-3.10;95.70
24762;BME280;12865;51.934;10.330;2022-12-18T10:07:13;100537.53;;;-2.97;96.88
24762;BME280;12865;51.934;10.330;2022-12-18T10:10:13;100532.91;;;-2.80;96.52
24762;BME280;12865;51.934;10.330;2022-12-18T10:16:19;100543.59;;;-2.43;94.18
24762;BME280;12865;51.934;10.330;2022-12-18T10:19:22;100557.44;;;-2.38;92.54
24762;BME280;12865;51.934;10.330;2022-12-18T10:25:22;100551.56;;;-2.02;89.34
24762;BME280;12865;51.934;10.330;2022-12-18T10:28:14;100542.53;;;-1.85;87.98
24762;BME280;12865;51.934;10.330;2022-12-18T10:31:00;100541.53;;;-1.78;88.14
24762;BME280;12865;51.934;10.330;2022-12-18T10:33:46;100535.31;;;-1.73;88.09
24762;BME280;12865;51.934;10.330;2022-12-18T10:36:32;100545.41;;;-1.54;87.50
24762;BME280;12865;51.934;10.330;2022-12-18T10:39:23;100547.13;;;-1.53;84.34
24762;BME280;12865;51.934;10.330;2022-12-18T10:42:17;100545.50;;;-1.59;84.50
24762;BME280;12865;51.934;10.330;2022-12-18T10:45:15;100531.41;;;-1.52;87.46
24762;BME280;12865;51.934;10.330;2022-12-18T10:48:01;100528.72;;;-1.49;87.21
24762;BME280;12865;51.934;10.330;2022-12-18T10:50:49;100526.25;;;-1.55;87.39
24762;BME280;12865;51.934;10.330;2022-12-18T10:53:37;100520.06;;;-1.51;88.80
24762;BME280;12865;51.934;10.330;2022-12-18T10:56:24;100510.59;;;-1.56;86.54
24762;BME280;12865;51.934;10.330;2022-12-18T10:59:14;100515.09;;;-1.63;85.63
24762;BME280;12865;51.934;10.330;2022-12-18T11:02:00;100507.84;;;-1.50;87.62
24762;BME280;12865;51.934;10.330;2022-12-18T11:04:51;100507.50;;;-1.35;87.71
24762;BME280;12865;51.934;10.330;2022-12-18T11:07:48;100509.13;;;-1.30;87.00
24762;BME280;12865;51.934;10.330;2022-12-18T11:10:38;100504.47;;;-1.17;86.61
24762;BME280;12865;51.934;10.330;2022-12-18T11:13:28;100507.84;;;-1.12;85.67
24762;BME280;12865;51.934;10.330;2022-12-18T11:16:20;100492.22;;;-1.15;84.30
24762;BME280;12865;51.934;10.330;2022-12-18T11:28:27;100487.47;;;-1.36;83.31
24762;BME280;12865;51.934;10.330;2022-12-18T11:31:26;100479.47;;;-1.29;82.19
24762;BME280;12865;51.934;10.330;2022-12-18T11:37:03;100478.41;;;-1.20;82.02
24762;BME280;12865;51.934;10.330;2022-12-18T11:39:54;100481.94;;;-1.23;81.21
24762;BME280;12865;51.934;10.330;2022-12-18T11:46:14;100486.25;;;-1.20;81.29
24762;BME280;12865;51.934;10.330;2022-12-18T11:52:19;100488.91;;;-1.23;78.31
24762;BME280;12865;51.934;10.330;2022-12-18T11:55:14;100485.47;;;-1.25;79.35
24762;BME280;12865;51.934;10.330;2022-12-18T12:07:34;100476.31;;;-1.06;78.31
24762;BME280;12865;51.934;10.330;2022-12-18T12:23:05;100445.19;;;-1.18;81.85
24762;BME280;12865;51.934;10.330;2022-12-18T12:26:03;100442.16;;;-1.37;84.48
24762;BME280;12865;51.934;10.330;2022-12-18T12:29:15;100434.41;;;-1.41;86.55
24762;BME280;12865;51.934;10.330;2022-12-18T12:38:32;100425.53;;;-1.73;85.00
24762;BME280;12865;51.934;10.330;2022-12-18T12:41:25;100422.94;;;-1.74;85.11
24762;BME280;12865;51.934;10.330;2022-12-18T12:44:49;100417.84;;;-1.80;83.91
24762;BME280;12865;51.934;10.330;2022-12-18T12:47:40;100415.25;;;-1.82;84.09
24762;BME280;12865;51.934;10.330;2022-12-18T12:50:27;100401.31;;;-1.81;84.08
24762;BME280;12865;51.934;10.330;2022-12-18T12:53:30;100389.94;;;-1.78;84.59
24762;BME280;12865;51.934;10.330;2022-12-18T12:56:19;100391.88;;;-1.88;84.56
24762;BME280;12865;51.934;10.330;2022-12-18T12:59:15;100372.00;;;-1.95;83.74
24762;BME280;12865;51.934;10.330;2022-12-18T13:02:13;100360.91;;;-2.05;83.88
24762;BME280;12865;51.934;10.330;2022-12-18T13:05:21;100372.97;;;-1.99;83.60
24762;BME280;12865;51.934;10.330;2022-12-18T13:08:22;100382.69;;;-2.04;83.19
24762;BME280;12865;51.934;10.330;2022-12-18T13:11:48;100380.13;;;-2.09;83.43
24762;BME280;12865;51.934;10.330;2022-12-18T13:14:52;100377.63;;;-2.13;84.33
24762;BME280;12865;51.934;10.330;2022-12-18T13:17:38;100372.38;;;-2.12;85.06
24762;BME280;12865;51.934;10.330;2022-12-18T13:20:32;100374.31;;;-2.21;86.03
24762;BME280;12865;51.934;10.330;2022-12-18T13:23:39;100370.09;;;-2.27;86.48
24762;BME280;12865;51.934;10.330;2022-12-18T13:29:11;100367.81;;;-2.44;87.54
24762;BME280;12865;51.934;10.330;2022-12-18T13:32:00;100384.44;;;-2.48;87.83
24762;BME280;12865;51.934;10.330;2022-12-18T13:34:46;100383.72;;;-2.56;88.31
24762;BME280;12865;51.934;10.330;2022-12-18T13:43:42;100374.25;;;-2.61;89.71
24762;BME280;12865;51.934;10.330;2022-12-18T13:46:46;100373.41;;;-2.62;90.45
24762;BME280;12865;51.934;10.330;2022-12-18T13:49:38;100385.59;;;-2.62;90.69
24762;BME280;12865;51.934;10.330;2022-12-18T13:52:26;100369.97;;;-2.65;91.46
24762;BME280;12865;51.934;10.330;2022-12-18T13:55:18;100366.47;;;-2.64;91.38
24762;BME280;12865;51.934;10.330;2022-12-18T13:58:05;100356.88;;;-2.62;91.50
24762;BME280;12865;51.934;10.330;2022-12-18T14:00:51;100366.47;;;-2.63;91.38
24762;BME280;12865;51.934;10.330;2022-12-18T14:03:37;100365.72;;;-2.69;92.17
24762;BME280;12865;51.934;10.330;2022-12-18T14:06:22;100358.75;;;-2.69;93.41
24762;BME280;12865;51.934;10.330;2022-12-18T14:09:13;100369.38;;;-2.80;94.87
24762;BME280;12865;51.934;10.330;2022-12-18T14:11:59;100376.25;;;-2.74;94.38
24762;BME280;12865;51.934;10.330;2022-12-18T14:15:06;100364.28;;;-2.86;94.92
24762;BME280;12865;51.934;10.330;2022-12-18T14:21:03;100354.03;;;-2.96;96.53
24762;BME280;12865;51.934;10.330;2022-12-18T14:24:23;100351.47;;;-2.99;96.07
24762;BME280;12865;51.934;10.330;2022-12-18T14:27:21;100345.47;;;-3.03;96.34
24762;BME280;12865;51.934;10.330;2022-12-18T14:33:12;100353.34;;;-3.07;97.42
24762;BME280;12865;51.934;10.330;2022-12-18T14:35:59;100346.44;;;-3.08;97.27
24762;BME280;12865;51.934;10.330;2022-12-18T14:38:58;100343.00;;;-3.10;97.66
24762;BME280;12865;51.934;10.330;2022-12-18T14:41:44;100330.84;;;-3.11;97.24
24762;BME280;12865;51.934;10.330;2022-12-18T14:44:30;100323.06;;;-3.14;97.12
24762;BME280;12865;51.934;10.330;2022-12-18T14:47:16;100322.25;;;-3.17;97.37
24762;BME280;12865;51.934;10.330;2022-12-18T14:50:03;100321.38;;;-3.17;97.73
24762;BME280;12865;51.934;10.330;2022-12-18T14:52:49;100325.75;;;-3.19;97.82
24762;BME280;12865;51.934;10.330;2022-12-18T14:55:35;100313.69;;;-3.25;97.72
24762;BME280;12865;51.934;10.330;2022-12-18T14:58:21;100318.94;;;-3.26;97.72
24762;BME280;12865;51.934;10.330;2022-12-18T15:01:07;100304.19;;;-3.29;98.17
24762;BME280;12865;51.934;10.330;2022-12-18T15:03:54;100310.34;;;-3.33;97.71
24762;BME280;12865;51.934;10.330;2022-12-18T15:06:40;100299.19;;;-3.39;98.07
24762;BME280;12865;51.934;10.330;2022-12-18T15:09:27;100303.56;;;-3.43;98.27
24762;BME280;12865;51.934;10.330;2022-12-18T15:12:35;100299.19;;;-3.39;98.35
24762;BME280;12865;51.934;10.330;2022-12-18T15:15:51;100289.75;;;-3.48;100.00
24762;BME280;12865;51.934;10.330;2022-12-18T15:18:41;100282.88;;;-3.50;100.00
24762;BME280;12865;51.934;10.330;2022-12-18T15:21:27;100281.09;;;-3.50;100.00
24762;BME280;12865;51.934;10.330;2022-12-18T15:24:19;100293.38;;;-3.55;100.00
24762;BME280;12865;51.934;10.330;2022-12-18T15:27:20;100280.41;;;-3.58;100.00
24762;BME280;12865;51.934;10.330;2022-12-18T15:33:22;100295.22;;;-3.63;100.00
24762;BME280;12865;51.934;10.330;2022-12-18T15:36:10;100297.84;;;-3.63;100.00
24762;BME280;12865;51.934;10.330;2022-12-18T15:38:56;100298.78;;;-3.67;100.00
24762;BME280;12865;51.934;10.330;2022-12-18T15:41:43;100292.78;;;-3.72;100.00
24762;BME280;12865;51.934;10.330;2022-12-18T15:44:49;100288.50;;;-3.76;100.00
24762;BME280;12865;51.934;10.330;2022-12-18T15:47:34;100281.53;;;-3.74;100.00
24762;BME280;12865;51.934;10.330;2022-12-18T15:50:20;100288.59;;;-3.82;100.00
24762;BME280;12865;51.934;10.330;2022-12-18T15:53:08;100275.59;;;-3.84;100.00
24762;BME280;12865;51.934;10.330;2022-12-18T15:55:54;100275.69;;;-3.90;100.00
24762;BME280;12865;51.934;10.330;2022-12-18T15:58:58;100269.63;;;-3.90;100.00
24762;BME280;12865;51.934;10.330;2022-12-18T16:01:47;100261.81;;;-3.90;100.00
24762;BME280;12865;51.934;10.330;2022-12-18T16:04:33;100264.41;;;-3.90;100.00